createdAt,value
2018-05-01T00:00:52.438Z,99583.43
2018-05-01T00:01:54.956Z,99580.91
2018-05-01T00:02:57.441Z,99589.33
2018-05-01T00:03:59.906Z,99584.23
2018-05-01T00:05:02.397Z,99588.93
2018-05-01T00:06:04.891Z,99591.28
2018-05-01T00:07:07.407Z,99593.45
2018-05-01T00:08:09.888Z,99586.36
2018-05-01T00:09:12.440Z,99592.83
2018-05-01T00:10:14.999Z,99594.03
2018-05-01T00:11:17.484Z,99591.68
2018-05-01T00:12:20.016Z,99596.37
2018-05-01T00:13:22.516Z,99590.30
2018-05-01T00:14:25.015Z,99604.05
2018-05-01T00:15:27.596Z,99592.25
2018-05-01T00:16:30.095Z,99600.33
2018-05-01T00:17:32.601Z,99596.20
2018-05-01T00:18:35.108Z,99591.50
2018-05-01T00:19:37.593Z,99591.11
2018-05-01T00:20:40.092Z,99606.23
2018-05-01T00:21:42.558Z,99599.93
2018-05-01T00:22:45.076Z,99609.16
2018-05-01T00:23:47.574Z,99600.50
2018-05-01T00:24:50.058Z,99601.88
2018-05-01T00:25:52.545Z,99611.10
2018-05-01T00:26:55.040Z,99603.43
2018-05-01T00:27:57.537Z,99606.18
2018-05-01T00:29:00.087Z,99607.95
2018-05-01T00:30:02.535Z,99612.66
2018-05-01T00:31:05.033Z,99605.95
2018-05-01T00:32:07.606Z,99614.20
2018-05-01T00:33:10.105Z,99615.00
2018-05-01T00:34:12.607Z,99610.88
2018-05-01T00:35:15.077Z,99613.41
2018-05-01T00:36:17.575Z,99613.41
2018-05-01T00:37:20.056Z,99610.25
2018-05-01T00:38:22.542Z,99612.60
2018-05-01T00:39:25.011Z,99606.30
2018-05-01T00:40:27.493Z,99610.60
2018-05-01T00:41:29.977Z,99614.16
2018-05-01T00:42:32.476Z,99615.88
2018-05-01T00:43:34.979Z,99617.65
2018-05-01T00:44:37.464Z,99617.08
2018-05-01T00:45:39.930Z,99625.73
2018-05-01T00:46:42.430Z,99626.07
2018-05-01T00:47:44.916Z,99629.45
2018-05-01T00:48:47.405Z,99623.72
2018-05-01T00:49:49.894Z,99621.55
2018-05-01T00:50:52.385Z,99629.05
2018-05-01T00:51:54.865Z,99631.00
2018-05-01T00:52:57.330Z,99636.50
2018-05-01T00:53:59.863Z,99620.32
2018-05-01T00:55:02.420Z,99626.25
2018-05-01T00:56:04.890Z,99627.19
2018-05-01T00:57:07.378Z,99619.91
2018-05-01T00:58:09.846Z,99628.02
2018-05-01T00:59:12.337Z,99629.14
2018-05-01T01:00:14.817Z,99625.99
2018-05-01T01:01:17.315Z,99625.02
2018-05-01T01:02:19.801Z,99630.69
2018-05-01T01:03:22.285Z,99631.49
2018-05-01T01:04:24.803Z,99629.14
2018-05-01T01:05:27.284Z,99632.47
2018-05-01T01:06:29.787Z,99641.11
2018-05-01T01:07:32.271Z,99636.19
2018-05-01T01:08:34.771Z,99628.16
2018-05-01T01:09:37.291Z,99640.14
2018-05-01T01:10:39.795Z,99637.39
2018-05-01T01:11:42.265Z,99640.94
2018-05-01T01:12:44.800Z,99635.44
2018-05-01T01:13:47.303Z,99631.17
2018-05-01T01:14:49.813Z,99650.81
2018-05-01T01:15:52.297Z,99642.00
2018-05-01T01:16:54.781Z,99629.05
2018-05-01T01:17:57.254Z,99647.72
2018-05-01T01:18:59.751Z,99644.75
2018-05-01T01:20:02.266Z,99645.14
2018-05-01T01:21:04.760Z,99647.89
2018-05-01T01:22:07.347Z,99644.58
2018-05-01T01:23:09.909Z,99646.30
2018-05-01T01:24:12.402Z,99654.38
2018-05-01T01:25:14.899Z,99647.09
2018-05-01T01:26:17.412Z,99645.89
2018-05-01T01:27:19.883Z,99646.30
2018-05-01T01:28:22.361Z,99643.55
2018-05-01T01:29:24.868Z,99650.42
2018-05-01T01:30:27.379Z,99647.67
2018-05-01T01:31:29.854Z,99652.37
2018-05-01T01:32:32.337Z,99658.09
2018-05-01T01:33:34.843Z,99660.44
2018-05-01T01:34:37.348Z,99653.39
2018-05-01T01:35:39.332Z,99660.27
2018-05-01T01:36:41.295Z,99665.77
2018-05-01T01:37:43.240Z,99666.39
2018-05-01T01:38:45.174Z,99657.74
2018-05-01T01:39:47.137Z,99667.59
2018-05-01T01:40:49.112Z,99669.38
2018-05-01T01:41:51.056Z,99666.80
2018-05-01T01:42:53.046Z,99671.09
2018-05-01T01:43:54.997Z,99667.95
2018-05-01T01:44:56.950Z,99665.37
2018-05-01T01:45:58.929Z,99675.97
2018-05-01T01:47:00.878Z,99669.01
2018-05-01T01:48:02.839Z,99673.70
2018-05-01T01:49:04.789Z,99669.36
2018-05-01T01:50:06.808Z,99675.83
2018-05-01T01:51:08.761Z,99676.80
2018-05-01T01:52:10.713Z,99682.88
2018-05-01T01:53:12.682Z,99666.78
2018-05-01T01:54:14.729Z,99686.20
2018-05-01T01:55:16.760Z,99688.95
2018-05-01T01:56:18.725Z,99686.77
2018-05-01T01:57:20.749Z,99692.84
2018-05-01T01:58:22.693Z,99688.49
2018-05-01T01:59:24.663Z,99695.37
2018-05-01T02:00:26.817Z,99686.14
2018-05-01T02:01:28.770Z,99694.39
2018-05-01T02:02:30.719Z,99695.54
2018-05-01T02:03:32.755Z,99691.41
2018-05-01T02:04:34.689Z,99698.29
2018-05-01T02:05:36.614Z,99696.11
2018-05-01T02:06:38.580Z,99691.41
2018-05-01T02:07:40.527Z,99693.36
2018-05-01T02:08:42.487Z,99698.06
2018-05-01T02:09:44.429Z,99700.41
2018-05-01T02:10:46.381Z,99699.44
2018-05-01T02:11:48.351Z,99695.89
2018-05-01T02:12:50.279Z,99697.83
2018-05-01T02:13:52.224Z,99706.08
2018-05-01T02:14:54.183Z,99704.70
2018-05-01T02:15:56.130Z,99702.53
2018-05-01T02:16:58.088Z,99701.39
2018-05-01T02:18:00.088Z,99714.33
2018-05-01T02:19:02.021Z,99707.86
2018-05-01T02:20:03.987Z,99708.03
2018-05-01T02:21:05.943Z,99702.53
2018-05-01T02:22:07.886Z,99713.13
2018-05-01T02:23:09.847Z,99712.73
2018-05-01T02:24:11.790Z,99707.41
2018-05-01T02:25:13.761Z,99714.10
2018-05-01T02:26:15.718Z,99714.50
2018-05-01T02:27:17.679Z,99712.73
2018-05-01T02:28:19.632Z,99720.41
2018-05-01T02:29:21.603Z,99719.83
2018-05-01T02:30:23.552Z,99730.83
2018-05-01T02:31:25.502Z,99731.40
2018-05-01T02:32:27.545Z,99720.80
2018-05-01T02:33:29.510Z,99729.85
2018-05-01T02:34:31.446Z,99729.05
2018-05-01T02:35:33.589Z,99730.02
2018-05-01T02:36:35.557Z,99731.40
2018-05-01T02:37:37.492Z,99735.35
2018-05-01T02:38:39.527Z,99729.63
2018-05-01T02:39:41.457Z,99725.67
2018-05-01T02:40:43.414Z,99728.25
2018-05-01T02:41:45.396Z,99731.57
2018-05-01T02:42:47.332Z,99728.82
2018-05-01T02:43:49.285Z,99739.99
2018-05-01T02:44:51.215Z,99740.97
2018-05-01T02:45:53.159Z,99739.59
2018-05-01T02:46:55.129Z,99737.02
2018-05-01T02:47:57.101Z,99742.91
2018-05-01T02:48:59.034Z,99738.16
2018-05-01T02:50:01.034Z,99740.34
2018-05-01T02:51:03.726Z,99739.94
2018-05-01T02:52:05.675Z,99744.63
2018-05-01T02:53:07.644Z,99742.86
2018-05-01T02:54:09.611Z,99747.95
2018-05-01T02:55:11.571Z,99744.80
2018-05-01T02:56:13.619Z,99747.55
2018-05-01T02:57:15.570Z,99746.75
2018-05-01T02:58:17.502Z,99750.61
2018-05-01T02:59:19.443Z,99748.84
2018-05-01T03:00:21.472Z,99750.61
2018-05-01T03:01:23.356Z,99741.97
2018-05-01T03:02:25.393Z,99747.64
2018-05-01T03:03:27.359Z,99746.84
2018-05-01T03:04:29.300Z,99752.73
2018-05-01T03:05:31.347Z,99745.64
2018-05-01T03:06:33.286Z,99750.73
2018-05-01T03:07:35.256Z,99757.20
2018-05-01T03:08:37.209Z,99751.70
2018-05-01T03:09:39.160Z,99755.03
2018-05-01T03:10:41.120Z,99753.66
2018-05-01T03:11:43.124Z,99756.80
2018-05-01T03:12:45.099Z,99756.98
2018-05-01T03:13:47.057Z,99750.91
2018-05-01T03:14:49.000Z,99759.33
2018-05-01T03:15:50.942Z,99754.00
2018-05-01T03:16:52.878Z,99763.84
2018-05-01T03:17:54.840Z,99767.74
2018-05-01T03:18:56.783Z,99768.14
2018-05-01T03:19:58.731Z,99767.34
2018-05-01T03:21:00.690Z,99762.81
2018-05-01T03:22:02.641Z,99762.02
2018-05-01T03:23:04.625Z,99764.77
2018-05-01T03:24:06.570Z,99760.64
2018-05-01T03:25:08.511Z,99772.78
2018-05-01T03:26:10.554Z,99769.63
2018-05-01T03:27:12.519Z,99766.88
2018-05-01T03:28:14.478Z,99767.86
2018-05-01T03:29:16.437Z,99770.61
2018-05-01T03:30:18.392Z,99764.30
2018-05-01T03:31:20.322Z,99769.80
2018-05-01T03:32:22.266Z,99776.10
2018-05-01T03:33:24.229Z,99770.20
2018-05-01T03:34:26.237Z,99777.65
2018-05-01T03:35:28.181Z,99775.88
2018-05-01T03:36:30.133Z,99773.13
2018-05-01T03:37:32.082Z,99780.39
2018-05-01T03:38:34.063Z,99775.24
2018-05-01T03:39:35.995Z,99780.57
2018-05-01T03:40:37.959Z,99781.14
2018-05-01T03:41:39.897Z,99790.77
2018-05-01T03:42:41.841Z,99784.06
2018-05-01T03:43:43.833Z,99790.93
2018-05-01T03:44:45.784Z,99789.73
2018-05-01T03:45:47.753Z,99796.59
2018-05-01T03:46:49.722Z,99791.11
2018-05-01T03:47:51.673Z,99794.02
2018-05-01T03:48:53.681Z,99796.38
2018-05-01T03:49:55.610Z,99794.02
2018-05-01T03:50:57.571Z,99802.84
2018-05-01T03:51:59.619Z,99793.63
2018-05-01T03:53:01.565Z,99794.59
2018-05-01T03:54:03.524Z,99801.47
2018-05-01T03:55:05.473Z,99796.94
2018-05-01T03:56:07.461Z,99792.82
2018-05-01T03:57:09.389Z,99796.71
2018-05-01T03:58:11.314Z,99803.98
2018-05-01T03:59:13.277Z,99796.48
2018-05-01T04:00:15.252Z,99807.13
2018-05-01T04:01:17.213Z,99802.21
2018-05-01T04:02:19.225Z,99802.78
2018-05-01T04:03:21.134Z,99802.92
2018-05-01T04:04:23.112Z,99806.91
2018-05-01T04:05:25.065Z,99805.67
2018-05-01T04:06:27.067Z,99814.34
2018-05-01T04:07:29.022Z,99812.97
2018-05-01T04:08:31.782Z,99810.23
2018-05-01T04:09:33.741Z,99822.73
2018-05-01T04:10:35.678Z,99819.41
2018-05-01T04:11:37.620Z,99823.53
2018-05-01T04:12:39.664Z,99820.78
2018-05-01T04:13:41.616Z,99823.53
2018-05-01T04:14:43.595Z,99825.34
2018-05-01T04:15:45.542Z,99828.23
2018-05-01T04:16:47.486Z,99823.30
2018-05-01T04:17:49.443Z,99825.48
2018-05-01T04:18:51.437Z,99829.20
2018-05-01T04:19:53.408Z,99827.42
2018-05-01T04:20:55.365Z,99832.70
2018-05-01T04:21:57.330Z,99836.81
2018-05-01T04:22:59.322Z,99833.66
2018-05-01T04:24:01.265Z,99836.41
2018-05-01T04:25:03.247Z,99839.16
2018-05-01T04:26:05.178Z,99835.04
2018-05-01T04:27:07.145Z,99833.27
2018-05-01T04:28:09.086Z,99836.59
2018-05-01T04:29:11.032Z,99844.83
2018-05-01T04:30:12.986Z,99840.30
2018-05-01T04:31:14.994Z,99842.48
2018-05-01T04:32:16.955Z,99842.08
2018-05-01T04:33:18.947Z,99851.30
2018-05-01T04:34:20.934Z,99854.62
2018-05-01T04:35:22.957Z,99854.22
2018-05-01T04:36:24.927Z,99856.56
2018-05-01T04:37:26.873Z,99855.36
2018-05-01T04:38:28.830Z,99858.11
2018-05-01T04:39:30.784Z,99859.48
2018-05-01T04:40:32.734Z,99874.77
2018-05-01T04:41:34.667Z,99864.92
2018-05-01T04:42:36.636Z,99878.48
2018-05-01T04:43:38.583Z,99872.59
2018-05-01T04:44:40.562Z,99874.94
2018-05-01T04:45:42.540Z,99878.66
2018-05-01T04:46:44.489Z,99885.13
2018-05-01T04:47:46.434Z,99871.95
2018-05-01T04:48:48.393Z,99889.42
2018-05-01T04:49:50.407Z,99885.13
2018-05-01T04:50:52.396Z,99875.11
2018-05-01T04:51:54.364Z,99889.98
2018-05-01T04:52:56.308Z,99900.41
2018-05-01T04:53:58.238Z,99891.94
2018-05-01T04:55:00.185Z,99903.90
2018-05-01T04:56:02.157Z,99895.66
2018-05-01T04:57:04.149Z,99905.44
2018-05-01T04:58:06.097Z,99910.37
2018-05-01T04:59:08.431Z,99906.81
2018-05-01T05:00:10.394Z,99907.22
2018-05-01T05:01:12.410Z,99911.11
2018-05-01T05:02:14.375Z,99911.11
2018-05-01T05:03:16.330Z,99915.23
2018-05-01T05:04:18.260Z,99911.68
2018-05-01T05:05:20.219Z,99915.00
2018-05-01T05:06:22.272Z,99911.45
2018-05-01T05:07:24.220Z,99918.72
2018-05-01T05:08:26.188Z,99923.24
2018-05-01T05:09:28.189Z,99923.64
2018-05-01T05:10:30.115Z,99924.22
2018-05-01T05:11:32.082Z,99927.94
2018-05-01T05:12:34.048Z,99929.31
2018-05-01T05:13:36.011Z,99931.42
2018-05-01T05:14:37.957Z,99934.57
2018-05-01T05:15:39.929Z,99935.55
2018-05-01T05:16:41.893Z,99937.09
2018-05-01T05:17:43.835Z,99936.11
2018-05-01T05:18:45.804Z,99943.55
2018-05-01T05:19:47.757Z,99952.20
2018-05-01T05:20:49.707Z,99947.11
2018-05-01T05:21:51.658Z,99947.67
2018-05-01T05:22:53.609Z,99944.66
2018-05-01T05:23:55.573Z,99949.19
2018-05-01T05:24:57.500Z,99948.95
2018-05-01T05:25:59.549Z,99952.11
2018-05-01T05:27:01.517Z,99955.42
2018-05-01T05:28:03.531Z,99958.34
2018-05-01T05:29:05.415Z,99958.91
2018-05-01T05:30:07.375Z,99957.94
2018-05-01T05:31:09.303Z,99962.63
2018-05-01T05:32:11.254Z,99963.03
2018-05-01T05:33:13.215Z,99961.09
2018-05-01T05:34:15.218Z,99968.13
2018-05-01T05:35:17.166Z,99965.95
2018-05-01T05:36:19.163Z,99967.72
2018-05-01T05:37:21.084Z,99974.59
2018-05-01T05:38:23.077Z,99967.32
2018-05-01T05:39:25.084Z,99971.27
2018-05-01T05:40:26.972Z,99970.47
2018-05-01T05:41:28.933Z,99973.62
2018-05-01T05:42:30.886Z,99974.02
2018-05-01T05:43:32.909Z,99982.27
2018-05-01T05:44:34.847Z,99968.93
2018-05-01T05:45:36.784Z,99972.41
2018-05-01T05:46:38.728Z,99980.66
2018-05-01T05:47:40.716Z,99979.05
2018-05-01T05:48:42.650Z,99995.13
2018-05-01T05:49:44.579Z,99981.56
2018-05-01T05:50:46.521Z,99984.88
2018-05-01T05:51:48.483Z,99986.83
2018-05-01T05:52:50.449Z,99993.70
2018-05-01T05:53:52.419Z,99985.22
2018-05-01T05:54:54.369Z,99990.31
2018-05-01T05:55:56.298Z,99992.83
2018-05-01T05:56:58.245Z,100003.17
2018-05-01T05:58:00.215Z,100003.58
2018-05-01T05:59:02.150Z,100007.53
2018-05-01T06:00:04.113Z,100004.22
2018-05-01T06:01:06.127Z,100005.02
2018-05-01T06:02:08.064Z,100011.48
2018-05-01T06:03:10.024Z,100004.45
2018-05-01T06:04:12.013Z,100004.28
2018-05-01T06:05:13.953Z,100015.11
2018-05-01T06:06:15.897Z,100011.95
2018-05-01T06:07:17.844Z,100010.98
2018-05-01T06:08:19.810Z,100015.91
2018-05-01T06:09:22.853Z,100018.66
2018-05-01T06:10:24.802Z,100025.52
2018-05-01T06:11:26.757Z,100012.59
2018-05-01T06:12:28.709Z,100016.14
2018-05-01T06:13:30.683Z,100023.81
2018-05-01T06:14:32.636Z,100018.89
2018-05-01T06:15:34.599Z,100009.84
2018-05-01T06:16:36.549Z,100026.73
2018-05-01T06:17:38.501Z,100014.37
2018-05-01T06:18:40.483Z,100020.43
2018-05-01T06:19:42.429Z,100023.17
2018-05-01T06:20:44.397Z,100026.50
2018-05-01T06:21:46.398Z,100029.41
2018-05-01T06:22:48.349Z,100022.70
2018-05-01T06:23:50.309Z,100029.58
2018-05-01T06:24:52.302Z,100026.27
2018-05-01T06:25:54.272Z,100033.87
2018-05-01T06:26:56.249Z,100031.12
2018-05-01T06:27:58.184Z,100029.91
2018-05-01T06:29:00.150Z,100035.98
2018-05-01T06:30:02.189Z,100036.55
2018-05-01T06:31:04.168Z,100042.05
2018-05-01T06:32:06.143Z,100035.34
2018-05-01T06:33:08.099Z,100037.45
2018-05-01T06:34:10.060Z,100046.66
2018-05-01T06:35:12.005Z,100037.22
2018-05-01T06:36:13.948Z,100041.73
2018-05-01T06:37:15.904Z,100048.61
2018-05-01T06:38:17.854Z,100042.08
2018-05-01T06:39:19.816Z,100040.27
2018-05-01T06:40:21.761Z,100043.02
2018-05-01T06:41:23.727Z,100044.82
2018-05-01T06:42:25.692Z,100046.33
2018-05-01T06:43:27.659Z,100056.52
2018-05-01T06:44:29.623Z,100051.02
2018-05-01T06:45:31.624Z,100054.17
2018-05-01T06:46:33.591Z,100045.93
2018-05-01T06:47:35.541Z,100055.95
2018-05-01T06:48:37.491Z,100058.45
2018-05-01T06:49:39.459Z,100060.40
2018-05-01T06:50:41.421Z,100063.95
2018-05-01T06:51:43.380Z,100066.87
2018-05-01T06:52:45.328Z,100070.02
2018-05-01T06:53:47.339Z,100080.60
2018-05-01T06:54:49.270Z,100070.02
2018-05-01T06:55:51.284Z,100069.61
2018-05-01T06:56:53.241Z,100085.70
2018-05-01T06:57:55.211Z,100081.58
2018-05-01T06:58:57.187Z,100083.34
2018-05-01T06:59:59.137Z,100084.32
2018-05-01T07:01:01.121Z,100082.55
2018-05-01T07:02:03.166Z,100085.29
2018-05-01T07:03:05.118Z,100089.81
2018-05-01T07:04:07.066Z,100085.29
2018-05-01T07:05:08.994Z,100081.91
2018-05-01T07:06:10.940Z,100086.59
2018-05-01T07:07:13.006Z,100097.02
2018-05-01T07:08:15.024Z,100096.21
2018-05-01T07:09:17.012Z,100092.66
2018-05-01T07:10:19.035Z,100087.97
2018-05-01T07:11:20.961Z,100088.30
2018-05-01T07:12:22.912Z,100090.88
2018-05-01T07:13:24.864Z,100084.59
2018-05-01T07:14:26.927Z,100092.59
2018-05-01T07:15:28.882Z,100087.90
2018-05-01T07:16:30.847Z,100092.42
2018-05-01T07:17:32.793Z,100088.88
2018-05-01T07:18:34.745Z,100090.81
2018-05-01T07:19:36.744Z,100092.99
2018-05-01T07:20:38.826Z,100098.89
2018-05-01T07:21:40.776Z,100096.88
2018-05-01T07:22:42.725Z,100106.48
2018-05-01T07:23:44.659Z,100107.30
2018-05-01T07:24:46.635Z,100105.12
2018-05-01T07:25:48.577Z,100102.37
2018-05-01T07:26:50.529Z,100112.39
2018-05-01T07:27:52.476Z,100112.39
2018-05-01T07:28:54.473Z,100106.89
2018-05-01T07:29:56.448Z,100115.70
2018-05-01T07:30:58.378Z,100112.79
2018-05-01T07:32:00.343Z,100114.56
2018-05-01T07:33:02.285Z,100118.69
2018-05-01T07:34:04.319Z,100113.02
2018-05-01T07:35:06.233Z,100114.97
2018-05-01T07:36:08.234Z,100128.87
2018-05-01T07:37:10.185Z,100124.58
2018-05-01T07:38:12.140Z,100122.97
2018-05-01T07:39:14.089Z,100120.80
2018-05-01T07:40:16.078Z,100123.30
2018-05-01T07:41:18.033Z,100128.96
2018-05-01T07:42:20.009Z,100132.68
2018-05-01T07:43:21.938Z,100126.11
2018-05-01T07:44:23.915Z,100129.83
2018-05-01T07:45:25.910Z,100133.14
2018-05-01T07:46:27.860Z,100128.79
2018-05-01T07:47:29.908Z,100131.94
2018-05-01T07:48:31.847Z,100114.25
2018-05-01T07:49:33.827Z,100138.16
2018-05-01T07:50:35.778Z,100131.03
2018-05-01T07:51:37.733Z,100133.94
2018-05-01T07:52:39.677Z,100132.16
2018-05-01T07:53:41.639Z,100129.02
2018-05-01T07:54:43.628Z,100139.84
2018-05-01T07:55:45.653Z,100136.13
2018-05-01T07:56:47.710Z,100137.73
2018-05-01T07:57:49.679Z,100140.17
2018-05-01T07:58:51.626Z,100146.31
2018-05-01T07:59:53.666Z,100142.70
2018-05-01T08:00:55.610Z,100142.37
2018-05-01T08:01:57.660Z,100136.80
2018-05-01T08:02:59.614Z,100142.28
2018-05-01T08:04:01.553Z,100142.04
2018-05-01T08:05:03.495Z,100150.38
2018-05-01T08:06:05.448Z,100145.30
2018-05-01T08:07:07.487Z,100141.73
2018-05-01T08:08:09.437Z,100140.45
2018-05-01T08:09:11.400Z,100150.97
2018-05-01T08:10:13.333Z,100149.94
2018-05-01T08:11:15.348Z,100144.54
2018-05-01T08:12:17.311Z,100152.84
2018-05-01T08:13:19.262Z,100151.39
2018-05-01T08:14:21.316Z,100149.30
2018-05-01T08:15:23.280Z,100153.44
2018-05-01T08:16:25.267Z,100166.03
2018-05-01T08:17:27.216Z,100163.75
2018-05-01T08:18:29.155Z,100149.63
2018-05-01T08:19:31.145Z,100155.52
2018-05-01T08:20:33.124Z,100153.98
2018-05-01T08:21:35.337Z,100156.42
2018-05-01T08:22:37.271Z,100154.56
2018-05-01T08:23:39.239Z,100155.45
2018-05-01T08:24:41.174Z,100155.92
2018-05-01T08:25:43.136Z,100165.28
2018-05-01T08:26:45.099Z,100164.62
2018-05-01T08:27:47.353Z,100167.70
2018-05-01T08:28:49.375Z,100168.02
2018-05-01T08:29:51.337Z,100167.94
2018-05-01T08:30:53.606Z,100169.78
2018-05-01T08:31:55.589Z,100160.48
2018-05-01T08:32:57.537Z,100165.48
2018-05-01T08:33:59.500Z,100173.66
2018-05-01T08:35:01.532Z,100176.48
2018-05-01T08:36:03.568Z,100173.08
2018-05-01T08:37:05.533Z,100168.45
2018-05-01T08:38:07.499Z,100170.47
2018-05-01T08:39:09.448Z,100180.73
2018-05-01T08:40:11.397Z,100181.37
2018-05-01T08:41:13.556Z,100185.72
2018-05-01T08:42:15.513Z,100187.73
2018-05-01T08:43:17.475Z,100183.72
2018-05-01T08:44:19.427Z,100187.84
2018-05-01T08:45:21.390Z,100178.87
2018-05-01T08:46:23.373Z,100190.27
2018-05-01T08:47:25.351Z,100189.39
2018-05-01T08:48:27.321Z,100195.86
2018-05-01T08:49:29.265Z,100189.80
2018-05-01T08:50:31.216Z,100182.92
2018-05-01T08:51:33.261Z,100183.73
2018-05-01T08:52:35.218Z,100186.88
2018-05-01T08:53:37.182Z,100192.78
2018-05-01T08:54:39.175Z,100193.02
2018-05-01T08:55:41.135Z,100179.28
2018-05-01T08:56:43.074Z,100186.39
2018-05-01T08:57:45.087Z,100188.56
2018-05-01T08:58:47.053Z,100192.69
2018-05-01T08:59:49.012Z,100195.84
2018-05-01T09:00:51.025Z,100195.27
2018-05-01T09:01:53.075Z,100200.20
2018-05-01T09:02:55.118Z,100196.48
2018-05-01T09:03:57.169Z,100191.79
2018-05-01T09:04:59.106Z,100195.34
2018-05-01T09:06:01.034Z,100194.13
2018-05-01T09:07:03.005Z,100206.73
2018-05-01T09:08:04.958Z,100197.52
2018-05-01T09:09:06.909Z,100197.92
2018-05-01T09:10:08.887Z,100197.92
2018-05-01T09:11:10.890Z,100200.67
2018-05-01T09:12:13.040Z,100206.97
2018-05-01T09:13:15.006Z,100206.56
2018-05-01T09:14:16.960Z,100204.39
2018-05-01T09:15:18.982Z,100217.55
2018-05-01T09:16:20.929Z,100213.27
2018-05-01T09:17:22.891Z,100214.64
2018-05-01T09:18:24.976Z,100206.23
2018-05-01T09:19:26.834Z,100202.69
2018-05-01T09:20:28.817Z,100210.52
2018-05-01T09:21:30.784Z,100209.55
2018-05-01T09:22:32.783Z,100207.20
2018-05-01T09:23:34.783Z,100220.78
2018-05-01T09:24:36.715Z,100217.89
2018-05-01T09:25:38.804Z,100206.64
2018-05-01T09:26:40.764Z,100206.07
2018-05-01T09:27:42.720Z,100218.03
2018-05-01T09:29:52.981Z,100215.28
2018-05-01T09:30:54.933Z,100224.09
2018-05-01T09:31:56.899Z,100219.17
2018-05-01T09:32:58.855Z,100211.33
2018-05-01T09:34:00.867Z,100225.63
2018-05-01T09:35:02.814Z,100230.73
2018-05-01T09:36:04.824Z,100219.73
2018-05-01T09:37:06.763Z,100222.64
2018-05-01T09:38:08.734Z,100224.83
2018-05-01T09:39:10.712Z,100224.83
2018-05-01T09:40:12.663Z,100222.48
2018-05-01T09:41:14.623Z,100227.00
2018-05-01T09:42:16.636Z,100229.02
2018-05-01T09:43:18.599Z,100225.70
2018-05-01T09:44:20.551Z,100236.96
2018-05-01T09:45:22.496Z,100235.02
2018-05-01T09:46:24.449Z,100230.73
2018-05-01T09:47:26.452Z,100232.75
2018-05-01T09:48:28.383Z,100234.53
2018-05-01T09:49:30.334Z,100235.97
2018-05-01T09:50:32.284Z,100243.48
2018-05-01T09:51:34.255Z,100236.21
2018-05-01T09:52:36.764Z,100233.70
2018-05-01T09:53:39.261Z,100235.08
2018-05-01T09:54:41.783Z,100233.53
2018-05-01T09:55:44.260Z,100242.19
2018-05-01T09:56:46.731Z,100237.90
2018-05-01T09:57:49.202Z,100237.73
2018-05-01T09:58:51.685Z,100245.97
2018-05-01T09:59:54.173Z,100234.58
2018-05-01T10:00:56.668Z,100239.11
2018-05-01T10:01:59.201Z,100230.86
2018-05-01T10:03:01.707Z,100237.73
2018-05-01T10:04:04.235Z,100248.16
2018-05-01T10:05:06.720Z,100242.09
2018-05-01T10:06:09.228Z,100241.69
2018-05-01T10:07:13.615Z,100247.59
2018-05-01T10:08:16.131Z,100239.74
2018-05-01T10:09:18.642Z,100240.72
2018-05-01T10:10:21.142Z,100238.54
2018-05-01T10:11:23.615Z,100245.24
2018-05-01T10:12:26.090Z,100244.27
2018-05-01T10:13:28.592Z,100240.31
2018-05-01T10:14:31.116Z,100249.77
2018-05-01T10:15:33.644Z,100246.21
2018-05-01T10:16:36.163Z,100254.45
2018-05-01T10:17:38.710Z,100251.70
2018-05-01T10:18:41.239Z,100246.78
2018-05-01T10:19:43.749Z,100246.38
2018-05-01T10:20:46.248Z,100253.65
2018-05-01T10:21:48.798Z,100256.56
2018-05-01T10:22:51.289Z,100259.71
2018-05-01T10:23:53.820Z,100251.47
2018-05-01T10:24:56.306Z,100255.59
2018-05-01T10:25:58.793Z,100264.41
2018-05-01T10:27:01.276Z,100258.34
2018-05-01T10:28:03.771Z,100259.71
2018-05-01T10:29:06.264Z,100265.20
2018-05-01T10:30:08.800Z,100259.71
2018-05-01T10:31:11.271Z,100269.33
2018-05-01T10:32:13.757Z,100269.90
2018-05-01T10:33:16.259Z,100271.11
2018-05-01T10:34:18.730Z,100269.73
2018-05-01T10:35:21.262Z,100274.99
2018-05-01T10:36:23.748Z,100281.30
2018-05-01T10:37:26.218Z,100275.39
2018-05-01T10:38:28.704Z,100272.08
2018-05-01T10:39:31.176Z,100277.17
2018-05-01T10:40:33.674Z,100275.80
2018-05-01T10:41:36.188Z,100276.20
2018-05-01T10:42:38.685Z,100276.77
2018-05-01T10:43:41.168Z,100283.07
2018-05-01T10:44:43.664Z,100281.30
2018-05-01T10:45:46.212Z,100274.42
2018-05-01T10:46:48.668Z,100274.99
2018-05-01T10:47:51.167Z,100275.96
2018-05-01T10:48:53.638Z,100280.08
2018-05-01T10:49:56.120Z,100275.96
2018-05-01T10:50:58.641Z,100280.66
2018-05-01T10:52:01.147Z,100272.81
2018-05-01T10:53:03.654Z,100278.30
2018-05-01T10:54:06.214Z,100277.91
2018-05-01T10:55:08.776Z,100267.31
2018-05-01T10:56:11.335Z,100278.30
2018-05-01T10:57:13.836Z,100280.89
2018-05-01T10:58:16.330Z,100277.97
2018-05-01T10:59:18.799Z,100281.70
2018-05-01T11:00:21.300Z,100282.50
2018-05-01T11:01:23.831Z,100282.09
2018-05-01T11:02:26.339Z,100287.02
2018-05-01T11:03:28.866Z,100283.31
2018-05-01T11:04:31.343Z,100288.64
2018-05-01T11:05:33.815Z,100282.17
2018-05-01T11:06:36.394Z,100278.22
2018-05-01T11:07:38.917Z,100280.80
2018-05-01T11:08:41.420Z,100279.27
2018-05-01T11:09:43.962Z,100281.60
2018-05-01T11:10:46.504Z,100285.97
2018-05-01T11:11:49.068Z,100276.34
2018-05-01T11:12:51.596Z,100283.22
2018-05-01T11:13:54.117Z,100283.05
2018-05-01T11:14:56.702Z,100282.65
2018-05-01T11:15:59.214Z,100287.58
2018-05-01T11:17:01.725Z,100281.55
2018-05-01T11:18:04.230Z,100284.30
2018-05-01T11:19:06.706Z,100274.91
2018-05-01T11:20:09.173Z,100272.47
2018-05-01T11:21:11.761Z,100275.08
2018-05-01T11:22:14.261Z,100283.72
2018-05-01T11:23:16.752Z,100290.59
2018-05-01T11:24:19.259Z,100291.40
2018-05-01T11:25:21.760Z,100285.50
2018-05-01T11:26:24.234Z,100286.31
2018-05-01T11:27:26.741Z,100293.58
2018-05-01T11:28:29.247Z,100300.05
2018-05-01T11:29:31.742Z,100296.73
2018-05-01T11:30:34.286Z,100292.38
2018-05-01T11:31:36.777Z,100297.30
2018-05-01T11:32:39.281Z,100301.99
2018-05-01T11:33:41.855Z,100299.64
2018-05-01T11:34:44.289Z,100301.83
2018-05-01T11:35:46.781Z,100305.30
2018-05-01T11:36:49.352Z,100301.99
2018-05-01T11:37:51.846Z,100304.47
2018-05-01T11:38:54.360Z,100304.33
2018-05-01T11:39:56.854Z,100300.34
2018-05-01T11:40:59.341Z,100298.44
2018-05-01T11:42:02.034Z,100299.81
2018-05-01T11:43:04.543Z,100297.19
2018-05-01T11:44:07.038Z,100294.31
2018-05-01T11:45:09.507Z,100293.34
2018-05-01T11:46:11.978Z,100296.89
2018-05-01T11:47:14.474Z,100290.83
2018-05-01T11:48:17.011Z,100295.36
2018-05-01T11:49:19.490Z,100297.70
2018-05-01T11:50:22.021Z,100296.73
2018-05-01T11:51:24.892Z,100294.95
2018-05-01T11:52:27.419Z,100304.97
2018-05-01T11:53:29.925Z,100303.60
2018-05-01T11:54:35.632Z,100308.70
2018-05-01T11:55:40.534Z,100305.78
2018-05-01T11:56:43.564Z,100298.51
2018-05-01T11:57:46.098Z,100308.94
2018-05-01T11:58:52.450Z,100312.25
2018-05-01T11:59:55.115Z,100313.46
2018-05-01T12:00:57.599Z,100308.53